Airport ID:KRTS
Update Time (UTC):19/06/2019 01:19
Wind Speed (Knots):15
Wind Direction (Magnetic):340
Temperature (°C):29
Dew Point (°C):-3
Humidity (%):12
Altimeter (inHg):30.12
Density Altitude (Feet):7600
Visibility (Miles):10+
Clouds (Hundreds of feet):CLR
Present Weather:
METAR:METAR KRTS 190115Z AUTO 36014KT 10SM CLR 29/M03 A3012 RMK AO2

The data displayed is for advisory purposes only and is not to be used for flight planning or operations.

This page is not automatically refreshed. Reload the page to see current data.